Time;durP1;ratioP1;P1;durP2;ratioP2;P2;SDS_P1;SDS_P2;PMS_P1;PMS_P2;Temp;Humidity;BMP_temperature;BMP_pressure;BME280_temperature;BME280_humidity;BME280_pressure;Samples;Min_cycle;Max_cycle;Signal;HPM_P1;HPM_P2
2023/12/31 00:00:51;;;;;;;;;;;;;;;9.36;74.47;97343.16;7373810;19;19953;-63
2023/12/31 00:03:16;;;;;;;;;;;;;;;9.35;74.09;97335.47;7362805;19;19927;-62
2023/12/31 00:05:41;;;;;;;;;;;;;;;9.32;74.35;97335.69;7363563;19;19923;-63
2023/12/31 00:08:06;;;;;;;;;;;;;;;9.31;74.18;97332.25;7365745;19;19922;-64
2023/12/31 00:10:32;;;;;;;;;;;;;;;9.31;74.07;97339.22;7366924;19;20235;-63
2023/12/31 00:12:57;;;;;;;;;;;;;;;9.31;74.30;97340.06;7366066;19;19930;-63
2023/12/31 00:15:23;;;;;;;;;;;;;;;9.31;74.25;97336.63;7365840;19;20344;-63
2023/12/31 00:17:48;;;;;;;;;;;;;;;9.30;74.30;97332.38;7368766;19;19937;-63
2023/12/31 00:20:13;;;;;;;;;;;;;;;9.30;74.16;97316.75;7366815;19;19919;-63
2023/12/31 00:22:38;;;;;;;;;;;;;;;9.30;73.78;97314.97;7363102;19;20288;-63
2023/12/31 00:25:04;;;;;;;;;;;;;;;9.30;73.83;97301.94;7364635;19;19948;-63
2023/12/31 00:27:29;;;;;;;;;;;;;;;9.31;73.53;97292.38;7366188;19;19927;-62
2023/12/31 00:29:54;;;;;;;;;;;;;;;9.30;73.61;97301.94;7364367;19;19915;-63
2023/12/31 00:32:20;;;;;;;;;;;;;;;9.30;73.86;97290.72;7361210;19;20001;-63
2023/12/31 00:34:45;;;;;;;;;;;;;;;9.29;73.29;97282.06;7365447;19;20323;-63
2023/12/31 00:37:10;;;;;;;;;;;;;;;9.30;73.25;97285.50;7365199;19;19956;-63
2023/12/31 00:39:36;;;;;;;;;;;;;;;9.31;73.14;97292.38;7365014;19;19935;-62
2023/12/31 00:42:01;;;;;;;;;;;;;;;9.31;73.01;97281.94;7362907;19;19926;-64
2023/12/31 00:44:26;;;;;;;;;;;;;;;9.31;73.52;97276.75;7364187;19;20010;-63
2023/12/31 00:46:51;;;;;;;;;;;;;;;9.30;73.10;97269.88;7360922;19;19926;-62
2023/12/31 00:49:17;;;;;;;;;;;;;;;9.29;72.81;97279.47;7366328;19;20780;-63
2023/12/31 00:51:43;;;;;;;;;;;;;;;9.29;73.09;97253.44;7364168;19;19922;-63
2023/12/31 00:54:08;;;;;;;;;;;;;;;9.30;72.61;97256.88;7364093;19;20354;-63
2023/12/31 00:56:34;;;;;;;;;;;;;;;9.28;73.18;97246.56;7374287;19;19926;-62
2023/12/31 00:58:59;;;;;;;;;;;;;;;9.30;72.52;97243.84;7366113;19;20912;-63
2023/12/31 01:01:24;;;;;;;;;;;;;;;9.29;72.92;97237.81;7361468;19;19911;-62
2023/12/31 01:03:50;;;;;;;;;;;;;;;9.28;72.55;97219.72;7358462;19;19915;-63
2023/12/31 01:06:16;;;;;;;;;;;;;;;9.27;72.99;97223.22;7370714;19;19918;-63
2023/12/31 01:08:41;;;;;;;;;;;;;;;9.27;72.64;97249.25;7361092;19;20544;-62
2023/12/31 01:11:07;;;;;;;;;;;;;;;9.26;73.07;97232.00;7363409;19;19945;-63
2023/12/31 01:13:32;;;;;;;;;;;;;;;9.25;73.04;97214.72;7364338;19;19940;-62
2023/12/31 01:15:57;;;;;;;;;;;;;;;9.25;72.58;97218.16;7365164;19;20517;-63
2023/12/31 01:18:22;;;;;;;;;;;;;;;9.23;72.61;97221.81;7363548;19;20408;-62
2023/12/31 01:20:48;;;;;;;;;;;;;;;9.23;72.90;97206.19;7366467;19;20268;-62
2023/12/31 01:23:13;;;;;;;;;;;;;;;9.21;72.96;97197.66;7365389;19;20006;-62
2023/12/31 01:25:39;;;;;;;;;;;;;;;9.21;72.58;97200.25;7363998;19;19923;-64
2023/12/31 01:28:05;;;;;;;;;;;;;;;9.20;73.19;97186.41;7364712;19;19933;-63
2023/12/31 01:30:30;;;;;;;;;;;;;;;9.20;73.14;97196.00;7363619;19;19919;-63
2023/12/31 01:32:56;;;;;;;;;;;;;;;9.19;72.85;97183.94;7363722;19;19927;-62
2023/12/31 01:35:21;;;;;;;;;;;;;;;9.20;72.99;97164.75;7363575;19;19926;-62
2023/12/31 01:37:46;;;;;;;;;;;;;;;9.20;72.77;97165.59;7359712;19;20048;-62
2023/12/31 01:40:12;;;;;;;;;;;;;;;9.20;73.02;97159.56;7364457;19;19974;-63
2023/12/31 01:42:37;;;;;;;;;;;;;;;9.20;72.84;97165.59;7359289;19;19933;-62
2023/12/31 01:45:03;;;;;;;;;;;;;;;9.22;73.30;97152.44;7362382;19;20521;-63
2023/12/31 01:47:29;;;;;;;;;;;;;;;9.22;72.93;97153.28;7358721;19;19925;-63
2023/12/31 01:49:55;;;;;;;;;;;;;;;9.22;72.85;97153.28;7366682;19;19952;-62
2023/12/31 01:52:21;;;;;;;;;;;;;;;9.23;73.00;97146.31;7363487;19;20298;-64
2023/12/31 01:54:47;;;;;;;;;;;;;;;9.24;73.15;97145.38;7361822;19;19929;-63
2023/12/31 01:57:14;;;;;;;;;;;;;;;9.26;73.16;97146.06;7370274;19;19911;-62
2023/12/31 01:59:39;;;;;;;;;;;;;;;9.28;72.61;97152.03;7367238;19;20002;-63
2023/12/31 02:02:04;;;;;;;;;;;;;;;9.28;72.81;97146.81;7362383;19;19990;-63
2023/12/31 02:04:33;;;;;;;;;;;;;;;9.29;73.01;97144.09;7370899;19;19943;-62
2023/12/31 02:06:59;;;;;;;;;;;;;;;9.31;72.80;97154.38;7364013;19;20284;-62
2023/12/31 02:09:25;;;;;;;;;;;;;;;9.34;72.62;97141.13;7364438;19;22370;-62
2023/12/31 02:11:50;;;;;;;;;;;;;;;9.35;72.82;97133.22;7361893;19;19918;-62
2023/12/31 02:14:15;;;;;;;;;;;;;;;9.36;72.59;97128.81;7363584;19;19919;-62
2023/12/31 02:16:40;;;;;;;;;;;;;;;9.38;72.85;97120.88;7367885;19;20034;-62
2023/12/31 02:19:05;;;;;;;;;;;;;;;9.39;72.70;97118.19;7363492;19;19931;-63
2023/12/31 02:21:31;;;;;;;;;;;;;;;9.40;72.60;97119.84;7366348;19;19931;-63
2023/12/31 02:23:56;;;;;;;;;;;;;;;9.41;72.53;97121.50;7361539;19;19923;-63
2023/12/31 02:26:23;;;;;;;;;;;;;;;9.42;72.61;97117.94;7363364;19;19957;-63
2023/12/31 02:28:48;;;;;;;;;;;;;;;9.44;72.96;97116.06;7372907;19;20272;-61
2023/12/31 02:31:13;;;;;;;;;;;;;;;9.45;72.82;97129.91;7360698;19;19922;-63
2023/12/31 02:33:38;;;;;;;;;;;;;;;9.45;73.02;97117.72;7363254;19;19927;-62
2023/12/31 02:36:04;;;;;;;;;;;;;;;9.46;73.00;97124.59;7363472;19;20487;-63
2023/12/31 02:38:29;;;;;;;;;;;;;;;9.46;72.95;97124.59;7363746;19;19914;-62
2023/12/31 02:40:54;;;;;;;;;;;;;;;9.46;73.15;97119.38;7361084;19;19931;-62
2023/12/31 02:43:20;;;;;;;;;;;;;;;9.47;72.90;97115.81;7366530;19;19923;-62
2023/12/31 02:45:45;;;;;;;;;;;;;;;9.47;72.85;97118.44;7365217;19;20026;-63
2023/12/31 02:48:10;;;;;;;;;;;;;;;9.47;73.19;97110.63;7363688;19;19926;-63
2023/12/31 02:50:36;;;;;;;;;;;;;;;9.47;73.08;97112.38;7364241;19;19953;-62
2023/12/31 02:53:02;;;;;;;;;;;;;;;9.46;73.16;97108.97;7362568;19;19922;-64
2023/12/31 02:55:27;;;;;;;;;;;;;;;9.45;73.19;97102.09;7365031;19;20335;-61
2023/12/31 02:57:52;;;;;;;;;;;;;;;9.44;73.28;97113.47;7362792;19;19959;-63
2023/12/31 03:00:18;;;;;;;;;;;;;;;9.44;73.36;97115.25;7363844;19;19918;-63
2023/12/31 03:02:43;;;;;;;;;;;;;;;9.41;73.00;97116.28;7361791;19;19929;-63
2023/12/31 03:05:08;;;;;;;;;;;;;;;9.39;73.14;97110.38;7366278;19;19927;-63
2023/12/31 03:07:34;;;;;;;;;;;;;;;9.37;73.04;97109.66;7365060;19;19915;-61
2023/12/31 03:09:59;;;;;;;;;;;;;;;9.36;73.44;97102.78;7361093;19;19930;-62
2023/12/31 03:12:24;;;;;;;;;;;;;;;9.32;73.33;97115.19;7365731;19;20328;-63
2023/12/31 03:14:50;;;;;;;;;;;;;;;9.29;73.43;97112.00;7370622;19;19939;-62
2023/12/31 03:17:15;;;;;;;;;;;;;;;9.26;73.22;97107.84;7372843;19;19907;-63
2023/12/31 03:19:40;;;;;;;;;;;;;;;9.22;73.01;97106.41;7369746;19;20006;-62
2023/12/31 03:22:05;;;;;;;;;;;;;;;9.20;73.05;97102.28;7366948;19;19934;-63
2023/12/31 03:24:31;;;;;;;;;;;;;;;9.15;73.06;97088.78;7373304;19;19935;-62
2023/12/31 03:26:56;;;;;;;;;;;;;;;9.13;73.09;97095.88;7369050;19;19922;-62
2023/12/31 03:29:21;;;;;;;;;;;;;;;9.08;73.12;97094.44;7371696;19;20670;-62
2023/12/31 03:31:47;;;;;;;;;;;;;;;9.04;73.53;97093.00;7368201;19;19917;-63
2023/12/31 03:34:12;;;;;;;;;;;;;;;9.02;73.60;97094.91;7368243;19;20419;-63
2023/12/31 03:36:37;;;;;;;;;;;;;;;8.99;73.60;97099.50;7369859;19;19915;-62
2023/12/31 03:39:03;;;;;;;;;;;;;;;8.96;73.61;97087.53;7366503;19;19925;-63
2023/12/31 03:41:28;;;;;;;;;;;;;;;8.93;73.46;97084.34;7369793;19;19928;-63
2023/12/31 03:43:53;;;;;;;;;;;;;;;8.90;73.40;97090.59;7368017;19;20699;-63
2023/12/31 03:46:18;;;;;;;;;;;;;;;8.87;73.46;97085.63;7371624;19;19923;-62
2023/12/31 03:48:44;;;;;;;;;;;;;;;8.83;73.53;97079.81;7368720;19;19919;-63
2023/12/31 03:51:09;;;;;;;;;;;;;;;8.79;73.64;97073.19;7368186;19;19931;-62
2023/12/31 03:53:35;;;;;;;;;;;;;;;8.76;73.19;97067.34;7367461;19;19950;-63
2023/12/31 03:56:00;;;;;;;;;;;;;;;8.72;73.68;97065.94;7361095;19;19922;-63
2023/12/31 03:58:25;;;;;;;;;;;;;;;8.69;73.49;97066.16;7368837;19;19934;-63
2023/12/31 04:00:50;;;;;;;;;;;;;;;8.65;73.75;97069.91;7371506;19;19946;-63
2023/12/31 04:03:16;;;;;;;;;;;;;;;8.51;73.48;97056.13;7372260;19;19911;-63
2023/12/31 04:05:41;;;;;;;;;;;;;;;8.57;73.54;97068.72;7365083;19;19922;-62
2023/12/31 04:08:07;;;;;;;;;;;;;;;8.55;73.87;97075.78;7370947;19;19919;-63
2023/12/31 04:10:32;;;;;;;;;;;;;;;8.52;73.65;97065.63;7374221;19;20356;-62
2023/12/31 04:12:57;;;;;;;;;;;;;;;8.50;74.18;97072.69;7376562;19;19915;-63
2023/12/31 04:15:22;;;;;;;;;;;;;;;8.48;73.85;97069.38;7375743;19;19929;-63
2023/12/31 04:17:48;;;;;;;;;;;;;;;8.46;73.86;97060.84;7347782;19;19950;-63
2023/12/31 04:20:13;;;;;;;;;;;;;;;8.45;73.88;97059.19;7366918;19;19918;-63
2023/12/31 04:22:38;;;;;;;;;;;;;;;8.42;74.06;97054.22;7363092;19;19927;-63
2023/12/31 04:25:04;;;;;;;;;;;;;;;8.42;74.14;97059.44;7367020;19;19922;-63
2023/12/31 04:27:31;;;;;;;;;;;;;;;8.39;74.42;97064.84;7366049;19;19919;-62
2023/12/31 04:29:57;;;;;;;;;;;;;;;8.39;74.46;97064.84;7369006;19;19923;-62
2023/12/31 04:32:25;;;;;;;;;;;;;;;8.37;74.27;97061.53;7366062;19;20546;-63
2023/12/31 04:34:50;;;;;;;;;;;;;;;8.37;74.16;97071.09;7368171;19;19926;-62
2023/12/31 04:37:15;;;;;;;;;;;;;;;8.35;74.43;97058.16;7361835;19;20296;-62
2023/12/31 04:39:40;;;;;;;;;;;;;;;8.36;74.49;97059.84;7367586;19;19942;-61
2023/12/31 04:42:06;;;;;;;;;;;;;;;8.34;74.32;97064.31;7370307;19;19949;-63
2023/12/31 04:44:31;;;;;;;;;;;;;;;8.35;74.54;97062.53;7363604;19;19923;-63
2023/12/31 04:46:56;;;;;;;;;;;;;;;8.34;74.87;97056.50;7369455;19;19922;-62
2023/12/31 04:49:21;;;;;;;;;;;;;;;8.34;74.66;97056.50;7366566;19;19923;-63
2023/12/31 04:51:47;;;;;;;;;;;;;;;8.33;74.74;97055.69;7373247;19;19926;-62
2023/12/31 04:54:12;;;;;;;;;;;;;;;8.31;74.58;97054.13;7364205;19;20565;-62
2023/12/31 04:56:38;;;;;;;;;;;;;;;8.32;74.58;97048.00;7364877;19;19935;-62
2023/12/31 04:59:03;;;;;;;;;;;;;;;8.29;74.85;97045.63;7364161;19;19929;-63
2023/12/31 05:01:32;;;;;;;;;;;;;;;8.28;74.75;97039.59;7367413;19;20320;-63
2023/12/31 05:03:58;;;;;;;;;;;;;;;8.26;74.75;97044.09;7367000;19;19923;-62
2023/12/31 05:06:23;;;;;;;;;;;;;;;8.25;74.79;97041.56;7366851;19;19930;-63
2023/12/31 05:08:48;;;;;;;;;;;;;;;8.24;74.48;97037.31;7368753;19;19940;-63
2023/12/31 05:11:14;;;;;;;;;;;;;;;8.21;74.70;97030.59;7370465;19;19919;-63
2023/12/31 05:13:40;;;;;;;;;;;;;;;8.21;74.60;97029.72;7363633;19;20259;-63
2023/12/31 05:16:06;;;;;;;;;;;;;;;8.19;74.71;97032.44;7373613;19;20419;-62
2023/12/31 05:18:31;;;;;;;;;;;;;;;8.17;74.86;97033.50;7367284;19;20032;-62
2023/12/31 05:20:57;;;;;;;;;;;;;;;8.17;74.67;97034.34;7368010;19;19929;-63
2023/12/31 05:23:22;;;;;;;;;;;;;;;8.16;74.82;97037.03;7366737;19;19919;-63
2023/12/31 05:25:49;;;;;;;;;;;;;;;8.16;74.64;97032.69;7365465;19;19911;-63
2023/12/31 05:28:14;;;;;;;;;;;;;;;8.16;75.00;97037.88;7367990;19;20596;-63
2023/12/31 05:30:41;;;;;;;;;;;;;;;8.17;75.16;97038.72;7364897;19;19923;-63
2023/12/31 05:33:06;;;;;;;;;;;;;;;8.16;74.84;97031.81;7367936;19;19927;-61
2023/12/31 05:35:32;;;;;;;;;;;;;;;8.16;74.85;97031.81;7365587;19;20335;-63
2023/12/31 05:37:57;;;;;;;;;;;;;;;8.17;75.23;97030.91;7364836;19;19927;-62
2023/12/31 05:40:22;;;;;;;;;;;;;;;8.17;74.93;97030.91;7358840;19;19943;-62
2023/12/31 05:42:47;;;;;;;;;;;;;;;8.18;75.19;97040.38;7365486;19;19990;-63
2023/12/31 05:45:13;;;;;;;;;;;;;;;8.18;75.06;97028.19;7357036;19;19922;-62
2023/12/31 05:47:38;;;;;;;;;;;;;;;8.19;75.16;97037.66;7368460;19;20378;-62
2023/12/31 05:50:03;;;;;;;;;;;;;;;8.20;75.65;97028.06;7365836;19;19915;-62
2023/12/31 05:52:29;;;;;;;;;;;;;;;8.22;75.54;97037.44;7365056;19;19922;-63
2023/12/31 05:54:54;;;;;;;;;;;;;;;8.24;75.70;97029.53;7362760;19;19938;-62
2023/12/31 05:57:20;;;;;;;;;;;;;;;8.25;75.72;97023.38;7367298;19;20482;-62
2023/12/31 05:59:45;;;;;;;;;;;;;;;8.26;75.44;97017.22;7361388;19;19911;-62
2023/12/31 06:02:10;;;;;;;;;;;;;;;8.26;75.52;97020.69;7376875;19;19934;-63
2023/12/31 06:04:35;;;;;;;;;;;;;;;8.27;75.67;97030.13;7363061;19;19922;-62
2023/12/31 06:07:01;;;;;;;;;;;;;;;8.28;75.70;97025.75;7365292;19;19950;-62
2023/12/31 06:09:27;;;;;;;;;;;;;;;8.27;75.51;97024.94;7360274;19;19925;-63
2023/12/31 06:11:52;;;;;;;;;;;;;;;8.26;75.37;97020.69;7363299;19;20017;-64
2023/12/31 06:14:17;;;;;;;;;;;;;;;8.25;75.44;97018.19;7360924;19;20409;-62
2023/12/31 06:16:43;;;;;;;;;;;;;;;8.24;75.24;97019.94;7366640;19;20413;-62
2023/12/31 06:19:08;;;;;;;;;;;;;;;8.24;75.40;97008.72;7361610;19;19910;-61
2023/12/31 06:21:33;;;;;;;;;;;;;;;8.24;75.66;97004.34;7362540;19;20041;-63
2023/12/31 06:23:59;;;;;;;;;;;;;;;8.25;75.46;97015.56;7366164;19;19926;-63
2023/12/31 06:26:24;;;;;;;;;;;;;;;8.25;75.40;97033.78;7364398;19;19925;-63
2023/12/31 06:28:49;;;;;;;;;;;;;;;8.24;75.46;97009.56;7363214;19;19930;-63
2023/12/31 06:31:14;;;;;;;;;;;;;;;8.24;75.59;97013.94;7361851;19;21534;-62
2023/12/31 06:33:40;;;;;;;;;;;;;;;8.23;75.36;97014.88;7350878;19;19929;-63
2023/12/31 06:36:05;;;;;;;;;;;;;;;8.21;75.64;97008.94;7363746;19;20715;-63
2023/12/31 06:38:30;;;;;;;;;;;;;;;8.19;75.68;97005.63;7363607;19;19935;-62
2023/12/31 06:40:55;;;;;;;;;;;;;;;8.18;75.32;97003.97;7364486;19;19925;-63
2023/12/31 06:43:21;;;;;;;;;;;;;;;8.16;75.54;96992.84;7358937;19;19922;-63
2023/12/31 06:45:46;;;;;;;;;;;;;;;8.14;75.18;97007.72;7363093;19;19919;-63
2023/12/31 06:48:11;;;;;;;;;;;;;;;8.13;75.59;96998.28;7369760;19;19927;-62
2023/12/31 06:50:36;;;;;;;;;;;;;;;8.11;75.44;96992.34;7369754;19;20348;-62
2023/12/31 06:53:02;;;;;;;;;;;;;;;8.09;75.74;96991.66;7369973;19;19922;-62
2023/12/31 06:55:28;;;;;;;;;;;;;;;8.07;75.53;96984.78;7367808;19;19930;-63
2023/12/31 06:57:53;;;;;;;;;;;;;;;8.05;75.41;96978.84;7366892;19;19914;-63
2023/12/31 07:00:18;;;;;;;;;;;;;;;8.04;75.43;96987.59;7374547;19;19927;-63
2023/12/31 07:02:44;;;;;;;;;;;;;;;8.04;75.89;96985.00;7372787;19;19922;-63
2023/12/31 07:05:09;;;;;;;;;;;;;;;8.03;75.77;96980.75;7366624;19;19923;-61
2023/12/31 07:07:34;;;;;;;;;;;;;;;8.02;75.78;96979.09;7373217;19;19998;-61
2023/12/31 07:10:00;;;;;;;;;;;;;;;8.02;75.71;96984.28;7367498;19;19919;-63
2023/12/31 07:12:25;;;;;;;;;;;;;;;8.02;75.84;96988.66;7371022;19;20022;-63
2023/12/31 07:14:51;;;;;;;;;;;;;;;8.01;75.97;96982.66;7372235;19;19930;-63
2023/12/31 07:17:16;;;;;;;;;;;;;;;8.00;75.91;96980.97;7374098;19;19930;-63
2023/12/31 07:19:41;;;;;;;;;;;;;;;7.95;75.71;96966.66;7365122;19;19919;-63
2023/12/31 07:22:07;;;;;;;;;;;;;;;8.01;75.95;96976.63;7368547;19;19922;-63
2023/12/31 07:24:35;;;;;;;;;;;;;;;8.02;75.98;96975.66;7367473;19;19918;-63
2023/12/31 07:27:00;;;;;;;;;;;;;;;8.03;76.31;96980.75;7371293;19;21241;-63
2023/12/31 07:29:25;;;;;;;;;;;;;;;8.03;76.39;96959.97;7366849;19;19935;-62
2023/12/31 07:31:51;;;;;;;;;;;;;;;8.04;76.40;96972.00;7370305;19;19939;-61
2023/12/31 07:34:16;;;;;;;;;;;;;;;8.07;76.59;96966.59;7366626;19;19914;-63
2023/12/31 07:36:41;;;;;;;;;;;;;;;8.10;76.31;96980.31;7371207;19;19940;-63
2023/12/31 07:39:07;;;;;;;;;;;;;;;8.13;76.31;96974.91;7365946;19;19923;-63
2023/12/31 07:41:32;;;;;;;;;;;;;;;8.14;76.69;96973.94;7369022;19;19925;-62
2023/12/31 07:43:57;;;;;;;;;;;;;;;8.16;76.36;96985.06;7368901;19;20012;-62
2023/12/31 07:46:23;;;;;;;;;;;;;;;8.17;76.64;96982.38;7373082;19;19911;-63
2023/12/31 07:48:48;;;;;;;;;;;;;;;8.19;76.38;96997.84;7368889;19;19939;-62
2023/12/31 07:51:13;;;;;;;;;;;;;;;8.21;76.38;96980.34;7367073;19;19938;-63
2023/12/31 07:53:38;;;;;;;;;;;;;;;8.21;76.50;96988.16;7361042;19;19923;-63
2023/12/31 07:56:04;;;;;;;;;;;;;;;8.22;76.28;97006.25;7367957;19;19942;-63
2023/12/31 07:58:30;;;;;;;;;;;;;;;8.23;76.71;96986.28;7363385;19;19915;-62
2023/12/31 08:00:55;;;;;;;;;;;;;;;8.23;76.40;96976.72;7369052;19;19966;-63
2023/12/31 08:03:21;;;;;;;;;;;;;;;8.23;76.73;96979.31;7367684;19;19938;-63
2023/12/31 08:05:46;;;;;;;;;;;;;;;8.25;76.72;96974.00;7365020;19;20006;-63
2023/12/31 08:08:12;;;;;;;;;;;;;;;8.26;77.03;96991.25;7369441;19;20336;-63
2023/12/31 08:10:40;;;;;;;;;;;;;;;8.28;77.05;96981.56;7369546;19;19982;-64
2023/12/31 08:13:06;;;;;;;;;;;;;;;8.30;76.99;96969.28;7366977;19;19923;-63
2023/12/31 08:15:31;;;;;;;;;;;;;;;8.33;77.00;96963.88;7367368;19;19922;-63
2023/12/31 08:17:57;;;;;;;;;;;;;;;8.35;77.33;96954.19;7366667;19;20321;-63
2023/12/31 08:20:22;;;;;;;;;;;;;;;8.37;76.93;96967.94;7366672;19;20066;-62
2023/12/31 08:22:52;;;;;;;;;;;;;;;8.39;77.01;96966.06;7366266;19;19957;-63
2023/12/31 08:25:17;;;;;;;;;;;;;;;8.41;76.93;96974.56;7365501;19;20003;-62
2023/12/31 08:27:42;;;;;;;;;;;;;;;8.42;77.01;96971.03;7366028;19;20881;-64
2023/12/31 08:30:08;;;;;;;;;;;;;;;8.43;77.09;96985.69;7360964;19;20291;-63
2023/12/31 08:32:33;;;;;;;;;;;;;;;8.45;77.37;96976.00;7367654;19;19911;-64
2023/12/31 08:34:58;;;;;;;;;;;;;;;8.46;77.20;96967.25;7372486;19;20381;-63
2023/12/31 08:37:24;;;;;;;;;;;;;;;8.46;77.48;96975.03;7375067;19;19911;-64
2023/12/31 08:39:49;;;;;;;;;;;;;;;8.46;77.32;96982.84;7371741;19;20271;-64
2023/12/31 08:42:14;;;;;;;;;;;;;;;8.47;77.37;96953.34;7366469;19;19924;-65
2023/12/31 08:44:39;;;;;;;;;;;;;;;8.46;77.24;96977.66;7363358;19;19915;-65
2023/12/31 08:47:05;;;;;;;;;;;;;;;8.47;77.46;96968.94;7363629;19;19922;-64
2023/12/31 08:49:31;;;;;;;;;;;;;;;8.48;77.61;96965.38;7366009;19;19923;-64
2023/12/31 08:51:56;;;;;;;;;;;;;;;8.47;77.90;96971.53;7367816;19;19919;-65
2023/12/31 08:54:21;;;;;;;;;;;;;;;8.46;77.43;96967.25;7358694;19;19918;-64
2023/12/31 08:56:46;;;;;;;;;;;;;;;8.47;77.52;96981.94;7368403;19;19918;-63
2023/12/31 08:59:12;;;;;;;;;;;;;;;8.47;77.51;96958.53;7372341;19;20539;-63
2023/12/31 09:01:37;;;;;;;;;;;;;;;8.47;77.72;96984.53;7369719;19;19919;-62
2023/12/31 09:04:02;;;;;;;;;;;;;;;8.46;78.00;96972.44;7367262;19;19914;-63
2023/12/31 09:06:28;;;;;;;;;;;;;;;8.45;77.75;96991.59;7366183;19;20616;-62
2023/12/31 09:08:54;;;;;;;;;;;;;;;8.44;78.00;96976.94;7371557;19;20331;-62
2023/12/31 09:11:20;;;;;;;;;;;;;;;8.43;78.14;96983.09;7364546;19;19979;-62
2023/12/31 09:13:45;;;;;;;;;;;;;;;8.44;77.78;96999.50;7365731;19;20364;-62
2023/12/31 09:16:10;;;;;;;;;;;;;;;8.42;77.96;96991.84;7359322;19;19915;-62
2023/12/31 09:18:35;;;;;;;;;;;;;;;8.42;78.00;97015.22;7364875;19;19931;-62
2023/12/31 09:21:01;;;;;;;;;;;;;;;8.43;78.05;97005.66;7358760;19;19986;-61
2023/12/31 09:23:27;;;;;;;;;;;;;;;8.42;78.00;97037.81;7366353;19;19942;-63
2023/12/31 09:25:53;;;;;;;;;;;;;;;8.41;78.20;97025.72;7363407;19;19911;-63
2023/12/31 09:28:19;;;;;;;;;;;;;;;8.40;78.20;97034.47;7368064;19;20373;-64
2023/12/31 09:30:44;;;;;;;;;;;;;;;8.40;78.27;97030.09;7366313;19;19923;-63
2023/12/31 09:33:09;;;;;;;;;;;;;;;8.39;78.21;97030.22;7363054;19;20357;-63
2023/12/31 09:35:35;;;;;;;;;;;;;;;8.27;78.52;97030.13;7362880;19;19919;-63
2023/12/31 09:38:00;;;;;;;;;;;;;;;8.38;78.56;97052.78;7364575;19;19947;-63
2023/12/31 09:40:25;;;;;;;;;;;;;;;8.38;78.53;97050.19;7364773;19;19915;-64
2023/12/31 09:42:50;;;;;;;;;;;;;;;8.39;78.59;97074.41;7364019;19;19955;-62
2023/12/31 09:45:24;;;;;;;;;;;;;;;8.37;78.72;97077.13;7362455;19;19964;-64
2023/12/31 09:47:50;;;;;;;;;;;;;;;8.38;78.83;97091.78;7362310;19;20420;-64
2023/12/31 09:50:19;;;;;;;;;;;;;;;8.38;78.91;97089.19;7357343;19;19982;-62
2023/12/31 09:52:46;;;;;;;;;;;;;;;8.38;78.79;97094.38;7361640;19;19919;-64
2023/12/31 09:55:11;;;;;;;;;;;;;;;8.38;79.04;97099.59;7362893;19;19926;-64
2023/12/31 09:57:37;;;;;;;;;;;;;;;8.39;79.21;97088.25;7362312;19;19915;-64
2023/12/31 10:00:05;;;;;;;;;;;;;;;8.40;78.98;97108.09;7360062;19;20314;-63
2023/12/31 10:02:30;;;;;;;;;;;;;;;8.40;79.10;97102.88;7352717;19;19914;-64
2023/12/31 10:04:55;;;;;;;;;;;;;;;8.40;79.18;97113.28;7357587;19;20534;-63
2023/12/31 10:07:22;;;;;;;;;;;;;;;8.40;79.19;97123.69;7359452;19;19918;-63
2023/12/31 10:09:49;;;;;;;;;;;;;;;8.41;79.59;97129.72;7367572;19;19919;-63
2023/12/31 10:12:15;;;;;;;;;;;;;;;8.41;79.10;97125.34;7363751;19;20378;-63
2023/12/31 10:14:40;;;;;;;;;;;;;;;8.41;79.49;97151.34;7357866;19;20413;-63
2023/12/31 10:17:09;;;;;;;;;;;;;;;8.43;79.29;97138.25;7363103;19;19922;-63
2023/12/31 10:19:34;;;;;;;;;;;;;;;8.43;79.32;97159.88;7359770;19;19931;-63
2023/12/31 10:22:00;;;;;;;;;;;;;;;8.45;79.33;97163.19;7360425;19;19948;-62
2023/12/31 10:24:26;;;;;;;;;;;;;;;8.45;79.82;97178.78;7364162;19;19915;-64
2023/12/31 10:26:51;;;;;;;;;;;;;;;8.46;79.67;97201.25;7366781;19;19926;-63
2023/12/31 10:29:17;;;;;;;;;;;;;;;8.48;79.77;97176.00;7364439;19;19918;-63
2023/12/31 10:31:42;;;;;;;;;;;;;;;8.51;80.10;97178.34;7371535;19;20009;-64
2023/12/31 10:34:12;;;;;;;;;;;;;;;8.52;79.69;97185.25;7367217;19;19932;-63
2023/12/31 10:36:37;;;;;;;;;;;;;;;8.55;79.85;97182.41;7366560;19;19915;-63
2023/12/31 10:39:03;;;;;;;;;;;;;;;8.59;80.02;97201.22;7365256;19;20038;-63
2023/12/31 10:41:31;;;;;;;;;;;;;;;8.64;80.13;97208.72;7365762;19;19929;-64
2023/12/31 10:43:59;;;;;;;;;;;;;;;8.66;80.36;97212.84;7360695;19;19939;-63
2023/12/31 10:46:25;;;;;;;;;;;;;;;8.70;80.01;97214.31;7368530;19;20308;-62
2023/12/31 10:48:56;;;;;;;;;;;;;;;8.74;80.38;97238.34;7363766;19;19919;-63
2023/12/31 10:51:23;;;;;;;;;;;;;;;8.79;80.19;97239.66;7371205;19;19943;-63
2023/12/31 10:53:49;;;;;;;;;;;;;;;8.82;79.99;97251.66;7363896;19;20802;-64
2023/12/31 10:56:15;;;;;;;;;;;;;;;8.86;80.19;97240.06;7363094;19;19943;-63
2023/12/31 10:58:40;;;;;;;;;;;;;;;8.90;79.95;97254.50;7367798;19;19919;-64
2023/12/31 11:01:07;;;;;;;;;;;;;;;8.92;80.02;97247.44;7344794;19;19951;-62
2023/12/31 11:03:33;;;;;;;;;;;;;;;8.94;79.97;97257.75;7365321;19;19922;-63
2023/12/31 11:06:00;;;;;;;;;;;;;;;8.97;79.89;97253.16;7362920;19;19926;-63
2023/12/31 11:08:27;;;;;;;;;;;;;;;8.99;80.15;97246.06;7368157;19;19915;-64
2023/12/31 11:10:53;;;;;;;;;;;;;;;8.91;79.84;97243.16;7370351;19;19955;-63
2023/12/31 11:13:18;;;;;;;;;;;;;;;9.03;79.76;97257.91;7373072;19;19922;-64
2023/12/31 11:15:44;;;;;;;;;;;;;;;9.05;80.21;97266.44;7368448;19;19919;-64
2023/12/31 11:18:19;;;;;;;;;;;;;;;9.06;79.81;97272.47;7368745;19;19943;-63
2023/12/31 11:20:47;;;;;;;;;;;;;;;9.04;79.84;97275.19;7366927;19;19936;-64
2023/12/31 11:23:23;;;;;;;;;;;;;;;9.11;80.19;97280.78;7367482;19;19918;-65
2023/12/31 11:25:49;;;;;;;;;;;;;;;9.14;79.98;97287.56;7362850;19;19923;-64
2023/12/31 11:28:15;;;;;;;;;;;;;;;9.16;80.01;97288.25;7363364;19;19981;-65
2023/12/31 11:30:51;;;;;;;;;;;;;;;9.20;80.24;97297.53;7363806;19;20459;-64
2023/12/31 11:33:35;;;;;;;;;;;;;;;9.24;80.24;97302.41;7365437;19;19922;-64
2023/12/31 11:36:10;;;;;;;;;;;;;;;9.28;80.07;97303.84;7367173;19;19930;-65
2023/12/31 11:39:14;;;;;;;;;;;;;;;9.33;79.97;97313.94;7371091;19;19923;-64
2023/12/31 11:41:45;;;;;;;;;;;;;;;9.37;80.05;97317.97;7368589;19;19944;-64
2023/12/31 11:44:10;;;;;;;;;;;;;;;9.41;80.01;97314.19;7372947;19;20369;-64
2023/12/31 11:46:39;;;;;;;;;;;;;;;9.44;80.35;97324.41;7368077;19;19918;-64
2023/12/31 11:49:09;;;;;;;;;;;;;;;9.49;80.14;97311.88;7369413;19;19945;-65
2023/12/31 11:51:50;;;;;;;;;;;;;;;9.54;80.12;97329.78;7366290;19;19927;-65
2023/12/31 11:54:35;;;;;;;;;;;;;;;9.58;80.03;97326.84;7362601;19;19998;-65
2023/12/31 11:57:00;;;;;;;;;;;;;;;9.61;80.16;97334.44;7369440;19;19956;-65
2023/12/31 11:59:26;;;;;;;;;;;;;;;9.67;80.37;97342.75;7365059;19;20427;-65
2023/12/31 12:01:52;;;;;;;;;;;;;;;9.75;80.33;97356.88;7366310;19;19922;-65
2023/12/31 12:04:17;;;;;;;;;;;;;;;9.87;80.50;97358.56;7365614;19;20724;-65
2023/12/31 12:06:42;;;;;;;;;;;;;;;9.96;80.31;97364.06;7365683;19;19919;-66
2023/12/31 12:09:08;;;;;;;;;;;;;;;10.00;79.92;97368.13;7365450;19;19937;-65
2023/12/31 12:11:34;;;;;;;;;;;;;;;10.03;79.64;97373.09;7367866;19;19986;-65
2023/12/31 12:14:04;;;;;;;;;;;;;;;10.03;79.58;97373.91;7367729;19;19919;-66
2023/12/31 12:16:29;;;;;;;;;;;;;;;10.04;79.05;97346.94;7367912;19;19931;-65
2023/12/31 12:19:02;;;;;;;;;;;;;;;10.03;79.43;97371.31;7369775;19;19919;-65
2023/12/31 12:21:28;;;;;;;;;;;;;;;10.03;79.34;97373.91;7361769;19;19919;-66
2023/12/31 12:23:53;;;;;;;;;;;;;;;10.04;79.69;97380.81;7367689;19;20417;-66
2023/12/31 12:26:19;;;;;;;;;;;;;;;10.06;79.74;97373.72;7362850;19;20310;-65
2023/12/31 12:28:46;;;;;;;;;;;;;;;10.07;79.35;97385.78;7360604;19;20323;-66
2023/12/31 12:31:14;;;;;;;;;;;;;;;10.08;79.29;97390.06;7363377;19;19954;-65
2023/12/31 12:33:41;;;;;;;;;;;;;;;10.08;79.18;97387.44;7372360;19;19923;-65
2023/12/31 12:36:07;;;;;;;;;;;;;;;10.08;79.10;97387.44;7366694;19;19998;-65
2023/12/31 12:38:32;;;;;;;;;;;;;;;10.08;79.38;97394.44;7365086;19;20005;-65
2023/12/31 12:41:00;;;;;;;;;;;;;;;10.08;79.54;97397.88;7364244;19;19919;-65
2023/12/31 12:43:32;;;;;;;;;;;;;;;10.10;79.99;97385.56;7374546;19;19923;-65
2023/12/31 12:46:01;;;;;;;;;;;;;;;10.16;80.07;97393.88;7363862;19;20375;-65
2023/12/31 12:48:26;;;;;;;;;;;;;;;10.20;79.83;97406.59;7363257;19;20658;-66